sensor_id;sensor_type;location;lat;lon;timestamp;pressure;altitude;pressure_sealevel;temperature;humidity
78149;BME280;67396;42.664;23.382;2023-02-18T00:00:07;95692.34;;;6.15;44.59
78149;BME280;67396;42.664;23.382;2023-02-18T00:02:33;95689.50;;;6.24;44.26
78149;BME280;67396;42.664;23.382;2023-02-18T00:04:58;95689.75;;;6.31;44.28
78149;BME280;67396;42.664;23.382;2023-02-18T00:07:24;95675.31;;;6.30;44.38
78149;BME280;67396;42.664;23.382;2023-02-18T00:09:49;95693.50;;;6.38;43.88
78149;BME280;67396;42.664;23.382;2023-02-18T00:12:14;95687.59;;;6.24;44.39
78149;BME280;67396;42.664;23.382;2023-02-18T00:14:40;95674.84;;;6.28;44.34
78149;BME280;67396;42.664;23.382;2023-02-18T00:17:05;95676.00;;;6.39;44.11
78149;BME280;67396;42.664;23.382;2023-02-18T00:19:30;95666.69;;;6.40;43.80
78149;BME280;67396;42.664;23.382;2023-02-18T00:21:56;95659.63;;;6.39;43.86
78149;BME280;67396;42.664;23.382;2023-02-18T00:24:21;95650.09;;;6.46;43.77
78149;BME280;67396;42.664;23.382;2023-02-18T00:26:49;95648.28;;;6.50;43.34
78149;BME280;67396;42.664;23.382;2023-02-18T00:29:15;95644.50;;;6.54;43.55
78149;BME280;67396;42.664;23.382;2023-02-18T00:31:41;95640.06;;;6.62;42.96
78149;BME280;67396;42.664;23.382;2023-02-18T00:34:06;95637.38;;;6.37;43.86
78149;BME280;67396;42.664;23.382;2023-02-18T00:36:32;95631.56;;;6.39;44.03
78149;BME280;67396;42.664;23.382;2023-02-18T00:38:59;95633.38;;;6.35;43.93
78149;BME280;67396;42.664;23.382;2023-02-18T00:41:26;95626.44;;;6.25;44.21
78149;BME280;67396;42.664;23.382;2023-02-18T00:43:52;95624.88;;;6.24;44.51
78149;BME280;67396;42.664;23.382;2023-02-18T00:46:19;95637.13;;;6.18;44.67
78149;BME280;67396;42.664;23.382;2023-02-18T00:48:44;95628.38;;;6.13;44.23
78149;BME280;67396;42.664;23.382;2023-02-18T00:51:10;95628.50;;;6.04;44.88
78149;BME280;67396;42.664;23.382;2023-02-18T00:53:36;95631.44;;;5.99;45.07
78149;BME280;67396;42.664;23.382;2023-02-18T00:56:02;95621.44;;;5.91;45.43
78149;BME280;67396;42.664;23.382;2023-02-18T00:58:27;95629.41;;;5.96;45.31
78149;BME280;67396;42.664;23.382;2023-02-18T01:00:53;95631.69;;;5.73;45.85
78149;BME280;67396;42.664;23.382;2023-02-18T01:03:19;95628.06;;;5.69;45.99
78149;BME280;67396;42.664;23.382;2023-02-18T01:05:46;95626.47;;;5.68;45.89
78149;BME280;67396;42.664;23.382;2023-02-18T01:08:14;95634.78;;;5.72;46.00
78149;BME280;67396;42.664;23.382;2023-02-18T01:10:42;95628.03;;;5.57;46.49
78149;BME280;67396;42.664;23.382;2023-02-18T01:13:09;95623.84;;;5.59;46.41
78149;BME280;67396;42.664;23.382;2023-02-18T01:15:36;95633.59;;;5.60;46.01
78149;BME280;67396;42.664;23.382;2023-02-18T01:18:01;95636.53;;;5.55;46.03
78149;BME280;67396;42.664;23.382;2023-02-18T01:20:27;95624.31;;;5.61;45.93
78149;BME280;67396;42.664;23.382;2023-02-18T01:22:52;95625.63;;;5.55;46.19
78149;BME280;67396;42.664;23.382;2023-02-18T01:25:18;95627.91;;;5.53;46.28
78149;BME280;67396;42.664;23.382;2023-02-18T01:27:43;95630.03;;;5.48;46.47
78149;BME280;67396;42.664;23.382;2023-02-18T01:30:13;95620.91;;;5.32;47.13
78149;BME280;67396;42.664;23.382;2023-02-18T01:32:40;95617.63;;;5.38;46.89
78149;BME280;67396;42.664;23.382;2023-02-18T01:35:06;95614.72;;;5.43;46.83
78149;BME280;67396;42.664;23.382;2023-02-18T01:37:32;95609.53;;;5.50;46.46
78149;BME280;67396;42.664;23.382;2023-02-18T01:39:57;95615.75;;;5.51;46.67
78149;BME280;67396;42.664;23.382;2023-02-18T01:42:26;95621.53;;;5.49;46.76
78149;BME280;67396;42.664;23.382;2023-02-18T01:44:51;95620.47;;;5.62;45.60
78149;BME280;67396;42.664;23.382;2023-02-18T01:47:18;95619.13;;;5.36;46.21
78149;BME280;67396;42.664;23.382;2023-02-18T01:49:45;95630.84;;;5.48;45.57
78149;BME280;67396;42.664;23.382;2023-02-18T01:52:24;95632.09;;;5.51;46.03
78149;BME280;67396;42.664;23.382;2023-02-18T01:54:53;95640.38;;;5.54;45.62
78149;BME280;67396;42.664;23.382;2023-02-18T01:57:23;95632.22;;;5.54;45.73
78149;BME280;67396;42.664;23.382;2023-02-18T02:00:03;95634.03;;;5.50;46.12
78149;BME280;67396;42.664;23.382;2023-02-18T02:02:30;95639.69;;;5.45;46.22
78149;BME280;67396;42.664;23.382;2023-02-18T02:04:57;95635.47;;;5.36;46.85
78149;BME280;67396;42.664;23.382;2023-02-18T02:07:24;95630.22;;;5.30;47.38
78149;BME280;67396;42.664;23.382;2023-02-18T02:09:52;95625.47;;;5.40;46.67
78149;BME280;67396;42.664;23.382;2023-02-18T02:53:43;95605.44;;;4.90;47.40
78149;BME280;67396;42.664;23.382;2023-02-18T02:56:19;95604.97;;;4.88;47.30
78149;BME280;67396;42.664;23.382;2023-02-18T02:58:54;95603.97;;;4.93;47.21
78149;BME280;67396;42.664;23.382;2023-02-18T03:07:08;95618.44;;;5.06;47.60
78149;BME280;67396;42.664;23.382;2023-02-18T03:12:22;95630.09;;;4.85;47.90
78149;BME280;67396;42.664;23.382;2023-02-18T03:15:07;95611.03;;;4.73;48.25
78149;BME280;67396;42.664;23.382;2023-02-18T03:17:45;95611.25;;;4.60;48.75
78149;BME280;67396;42.664;23.382;2023-02-18T03:20:23;95616.53;;;4.65;48.75
78149;BME280;67396;42.664;23.382;2023-02-18T03:22:50;95627.72;;;4.63;48.57
78149;BME280;67396;42.664;23.382;2023-02-18T03:25:18;95639.41;;;4.64;48.78
78149;BME280;67396;42.664;23.382;2023-02-18T03:27:52;95649.22;;;4.56;48.41
78149;BME280;67396;42.664;23.382;2023-02-18T03:30:30;95655.50;;;4.48;49.03
78149;BME280;67396;42.664;23.382;2023-02-18T03:33:00;95664.19;;;4.62;48.75
78149;BME280;67396;42.664;23.382;2023-02-18T03:35:28;95670.09;;;4.35;49.13
78149;BME280;67396;42.664;23.382;2023-02-18T03:38:06;95663.44;;;4.24;50.18
78149;BME280;67396;42.664;23.382;2023-02-18T03:40:34;95664.56;;;4.23;49.75
78149;BME280;67396;42.664;23.382;2023-02-18T03:42:59;95669.13;;;4.01;50.31
78149;BME280;67396;42.664;23.382;2023-02-18T03:45:25;95665.22;;;3.73;50.89
78149;BME280;67396;42.664;23.382;2023-02-18T03:47:51;95663.63;;;3.72;51.08
78149;BME280;67396;42.664;23.382;2023-02-18T03:50:17;95672.19;;;3.91;50.47
78149;BME280;67396;42.664;23.382;2023-02-18T03:52:42;95672.25;;;3.74;51.21
78149;BME280;67396;42.664;23.382;2023-02-18T03:55:08;95683.13;;;3.74;50.83
78149;BME280;67396;42.664;23.382;2023-02-18T03:57:34;95681.47;;;3.90;50.39
78149;BME280;67396;42.664;23.382;2023-02-18T03:59:59;95678.22;;;4.05;50.41
78149;BME280;67396;42.664;23.382;2023-02-18T04:02:25;95672.13;;;4.08;50.16
78149;BME280;67396;42.664;23.382;2023-02-18T04:04:50;95672.13;;;4.08;50.48
78149;BME280;67396;42.664;23.382;2023-02-18T04:07:16;95667.72;;;3.95;50.44
78149;BME280;67396;42.664;23.382;2023-02-18T04:09:41;95667.81;;;4.07;50.60
78149;BME280;67396;42.664;23.382;2023-02-18T04:12:06;95663.25;;;4.29;49.96
78149;BME280;67396;42.664;23.382;2023-02-18T04:14:32;95662.59;;;4.32;49.58
78149;BME280;67396;42.664;23.382;2023-02-18T04:16:57;95659.13;;;4.52;71.68
78149;BME280;67396;42.664;23.382;2023-02-18T04:19:23;95658.97;;;4.99;78.15
78149;BME280;67396;42.664;23.382;2023-02-18T04:21:48;95650.69;;;5.16;50.07
78149;BME280;67396;42.664;23.382;2023-02-18T04:24:14;95655.75;;;4.55;50.23
78149;BME280;67396;42.664;23.382;2023-02-18T04:26:42;95646.47;;;4.27;50.92
78149;BME280;67396;42.664;23.382;2023-02-18T04:29:08;95640.56;;;4.25;50.58
78149;BME280;67396;42.664;23.382;2023-02-18T04:31:33;95632.28;;;4.21;50.67
78149;BME280;67396;42.664;23.382;2023-02-18T04:33:58;95635.75;;;4.01;51.21
78149;BME280;67396;42.664;23.382;2023-02-18T04:36:24;95631.94;;;3.38;52.88
78149;BME280;67396;42.664;23.382;2023-02-18T04:38:49;95632.59;;;3.18;53.58
78149;BME280;67396;42.664;23.382;2023-02-18T04:41:15;95639.94;;;3.26;53.57
78149;BME280;67396;42.664;23.382;2023-02-18T04:43:40;95639.13;;;3.43;52.83
78149;BME280;67396;42.664;23.382;2023-02-18T04:46:05;95637.97;;;3.52;51.92
78149;BME280;67396;42.664;23.382;2023-02-18T04:48:31;95647.38;;;3.55;51.98
78149;BME280;67396;42.664;23.382;2023-02-18T04:50:56;95647.53;;;3.58;52.14
78149;BME280;67396;42.664;23.382;2023-02-18T04:53:22;95649.63;;;3.53;52.27
78149;BME280;67396;42.664;23.382;2023-02-18T04:55:51;95646.09;;;3.61;51.80
78149;BME280;67396;42.664;23.382;2023-02-18T04:58:20;95658.34;;;3.75;51.31
78149;BME280;67396;42.664;23.382;2023-02-18T05:00:46;95648.88;;;3.90;50.67
78149;BME280;67396;42.664;23.382;2023-02-18T05:03:13;95663.84;;;3.96;50.65
78149;BME280;67396;42.664;23.382;2023-02-18T05:05:44;95661.50;;;3.95;50.68
78149;BME280;67396;42.664;23.382;2023-02-18T05:08:12;95667.84;;;3.99;50.61
78149;BME280;67396;42.664;23.382;2023-02-18T05:10:48;95671.09;;;3.92;50.84
78149;BME280;67396;42.664;23.382;2023-02-18T05:13:19;95660.44;;;3.70;51.92
78149;BME280;67396;42.664;23.382;2023-02-18T05:15:50;95645.28;;;3.69;51.90
78149;BME280;67396;42.664;23.382;2023-02-18T05:18:32;95644.47;;;3.77;51.47
78149;BME280;67396;42.664;23.382;2023-02-18T05:20:58;95643.66;;;3.76;51.63
78149;BME280;67396;42.664;23.382;2023-02-18T05:23:32;95653.53;;;3.81;51.30
78149;BME280;67396;42.664;23.382;2023-02-18T05:25:58;95646.91;;;3.99;50.89
78149;BME280;67396;42.664;23.382;2023-02-18T05:28:24;95638.19;;;3.85;51.58
78149;BME280;67396;42.664;23.382;2023-02-18T05:31:02;95643.06;;;3.62;52.40
78149;BME280;67396;42.664;23.382;2023-02-18T05:33:30;95653.91;;;3.62;52.65
78149;BME280;67396;42.664;23.382;2023-02-18T05:35:55;95650.97;;;3.85;51.83
78149;BME280;67396;42.664;23.382;2023-02-18T05:38:27;95647.19;;;3.77;51.73
78149;BME280;67396;42.664;23.382;2023-02-18T05:40:52;95661.19;;;3.79;52.28
78149;BME280;67396;42.664;23.382;2023-02-18T05:43:27;95664.06;;;3.91;51.91
78149;BME280;67396;42.664;23.382;2023-02-18T05:46:04;95647.69;;;4.08;51.33
78149;BME280;67396;42.664;23.382;2023-02-18T05:48:30;95649.41;;;4.22;50.86
78149;BME280;67396;42.664;23.382;2023-02-18T05:50:55;95649.09;;;4.14;50.31
78149;BME280;67396;42.664;23.382;2023-02-18T05:53:21;95654.69;;;4.18;50.41
78149;BME280;67396;42.664;23.382;2023-02-18T05:55:47;95667.75;;;4.25;50.27
78149;BME280;67396;42.664;23.382;2023-02-18T05:58:12;95672.97;;;4.38;50.45
78149;BME280;67396;42.664;23.382;2023-02-18T06:00:41;95675.16;;;4.45;50.38
78149;BME280;67396;42.664;23.382;2023-02-18T06:03:09;95677.28;;;4.39;49.69
78149;BME280;67396;42.664;23.382;2023-02-18T06:05:42;95674.03;;;4.46;49.81
78149;BME280;67396;42.664;23.382;2023-02-18T06:08:11;95670.09;;;4.64;49.41
78149;BME280;67396;42.664;23.382;2023-02-18T06:10:43;95657.69;;;4.54;49.71
78149;BME280;67396;42.664;23.382;2023-02-18T06:13:08;95669.09;;;4.69;49.42
78149;BME280;67396;42.664;23.382;2023-02-18T06:15:34;95666.16;;;4.82;49.12
78149;BME280;67396;42.664;23.382;2023-02-18T06:18:04;95669.03;;;4.77;49.63
78149;BME280;67396;42.664;23.382;2023-02-18T06:20:30;95662.22;;;4.71;50.85
78149;BME280;67396;42.664;23.382;2023-02-18T06:23:02;95656.94;;;4.66;50.22
78149;BME280;67396;42.664;23.382;2023-02-18T06:25:34;95656.13;;;4.74;49.43
78149;BME280;67396;42.664;23.382;2023-02-18T06:28:03;95658.75;;;4.62;49.79
78149;BME280;67396;42.664;23.382;2023-02-18T06:30:43;95655.28;;;4.53;49.78
78149;BME280;67396;42.664;23.382;2023-02-18T06:33:09;95650.66;;;4.53;50.66
78149;BME280;67396;42.664;23.382;2023-02-18T06:35:41;95651.13;;;4.56;51.08
78149;BME280;67396;42.664;23.382;2023-02-18T06:38:17;95646.81;;;4.75;49.86
78149;BME280;67396;42.664;23.382;2023-02-18T06:40:48;95654.22;;;4.66;50.58
78149;BME280;67396;42.664;23.382;2023-02-18T06:43:15;95657.44;;;4.89;49.43
78149;BME280;67396;42.664;23.382;2023-02-18T06:45:46;95660.28;;;4.92;49.24
78149;BME280;67396;42.664;23.382;2023-02-18T06:48:17;95651.53;;;5.08;49.37
78149;BME280;67396;42.664;23.382;2023-02-18T06:50:45;95643.63;;;5.15;48.63
78149;BME280;67396;42.664;23.382;2023-02-18T06:53:12;95646.03;;;4.96;50.20
78149;BME280;67396;42.664;23.382;2023-02-18T06:55:38;95653.06;;;4.76;51.08
78149;BME280;67396;42.664;23.382;2023-02-18T06:58:14;95657.25;;;4.73;51.25
78149;BME280;67396;42.664;23.382;2023-02-18T07:00:45;95661.75;;;4.69;52.05
78149;BME280;67396;42.664;23.382;2023-02-18T07:03:42;95664.47;;;4.69;52.13
78149;BME280;67396;42.664;23.382;2023-02-18T07:06:08;95655.38;;;4.65;52.91
78149;BME280;67396;42.664;23.382;2023-02-18T07:08:34;95666.31;;;4.77;52.51
78149;BME280;67396;42.664;23.382;2023-02-18T07:11:05;95646.63;;;5.22;51.74
78149;BME280;67396;42.664;23.382;2023-02-18T07:13:40;95654.25;;;5.61;49.67
78149;BME280;67396;42.664;23.382;2023-02-18T07:16:15;95648.41;;;5.72;48.76
78149;BME280;67396;42.664;23.382;2023-02-18T07:18:46;95653.44;;;5.94;47.96
78149;BME280;67396;42.664;23.382;2023-02-18T07:23:47;95643.47;;;5.98;46.80
78149;BME280;67396;42.664;23.382;2023-02-18T07:26:13;95636.34;;;6.06;46.40
78149;BME280;67396;42.664;23.382;2023-02-18T07:28:41;95638.25;;;6.17;46.39
78149;BME280;67396;42.664;23.382;2023-02-18T07:31:24;95637.81;;;6.15;46.48
78149;BME280;67396;42.664;23.382;2023-02-18T07:33:56;95653.28;;;6.23;45.76
78149;BME280;67396;42.664;23.382;2023-02-18T07:36:39;95658.50;;;6.28;45.44
78149;BME280;67396;42.664;23.382;2023-02-18T07:39:14;95656.44;;;6.25;45.59
78149;BME280;67396;42.664;23.382;2023-02-18T07:41:46;95656.91;;;6.27;45.78
78149;BME280;67396;42.664;23.382;2023-02-18T07:44:12;95651.78;;;6.38;45.14
78149;BME280;67396;42.664;23.382;2023-02-18T07:46:41;95668.50;;;6.36;45.07
78149;BME280;67396;42.664;23.382;2023-02-18T07:49:07;95646.22;;;6.34;45.40
78149;BME280;67396;42.664;23.382;2023-02-18T07:51:33;95657.38;;;6.41;45.04
78149;BME280;67396;42.664;23.382;2023-02-18T07:53:59;95660.06;;;6.54;44.88
78149;BME280;67396;42.664;23.382;2023-02-18T07:56:27;95650.09;;;6.58;44.68
78149;BME280;67396;42.664;23.382;2023-02-18T07:58:52;95662.59;;;6.47;45.23
78149;BME280;67396;42.664;23.382;2023-02-18T08:01:18;95661.00;;;6.46;45.69
78149;BME280;67396;42.664;23.382;2023-02-18T08:03:55;95666.00;;;6.31;46.07
78149;BME280;67396;42.664;23.382;2023-02-18T08:06:29;95663.25;;;6.43;45.29
78149;BME280;67396;42.664;23.382;2023-02-18T08:08:55;95653.81;;;6.53;44.83
78149;BME280;67396;42.664;23.382;2023-02-18T08:11:20;95650.59;;;7.00;44.04
78149;BME280;67396;42.664;23.382;2023-02-18T08:13:50;95658.75;;;7.68;42.20
78149;BME280;67396;42.664;23.382;2023-02-18T08:16:19;95645.81;;;8.40;39.97
78149;BME280;67396;42.664;23.382;2023-02-18T08:18:49;95651.44;;;8.78;39.84
78149;BME280;67396;42.664;23.382;2023-02-18T08:21:25;95641.00;;;8.21;39.88
78149;BME280;67396;42.664;23.382;2023-02-18T08:24:05;95636.69;;;7.88;40.66
78149;BME280;67396;42.664;23.382;2023-02-18T08:26:34;95653.63;;;8.10;41.03
78149;BME280;67396;42.664;23.382;2023-02-18T08:29:08;95646.94;;;8.54;39.41
78149;BME280;67396;42.664;23.382;2023-02-18T08:31:47;95645.25;;;8.65;39.64
78149;BME280;67396;42.664;23.382;2023-02-18T08:34:27;95643.84;;;8.56;39.20
78149;BME280;67396;42.664;23.382;2023-02-18T08:36:54;95649.41;;;8.59;39.41
78149;BME280;67396;42.664;23.382;2023-02-18T08:39:33;95645.09;;;8.58;39.50
78149;BME280;67396;42.664;23.382;2023-02-18T08:41:59;95632.13;;;8.55;39.66
78149;BME280;67396;42.664;23.382;2023-02-18T08:44:29;95628.06;;;8.18;40.23
78149;BME280;67396;42.664;23.382;2023-02-18T08:47:01;95617.63;;;7.92;41.07
78149;BME280;67396;42.664;23.382;2023-02-18T08:49:33;95632.81;;;8.05;41.06
78149;BME280;67396;42.664;23.382;2023-02-18T08:52:01;95646.03;;;8.19;40.88
78149;BME280;67396;42.664;23.382;2023-02-18T08:54:32;95648.44;;;8.36;40.58
78149;BME280;67396;42.664;23.382;2023-02-18T08:56:58;95648.72;;;8.31;40.87
78149;BME280;67396;42.664;23.382;2023-02-18T08:59:26;95642.63;;;8.38;40.54
78149;BME280;67396;42.664;23.382;2023-02-18T09:01:54;95639.56;;;8.39;40.59
78149;BME280;67396;42.664;23.382;2023-02-18T09:04:19;95648.06;;;8.06;41.08
78149;BME280;67396;42.664;23.382;2023-02-18T09:06:46;95633.84;;;8.01;41.57
78149;BME280;67396;42.664;23.382;2023-02-18T09:09:17;95630.34;;;8.16;41.45
78149;BME280;67396;42.664;23.382;2023-02-18T09:11:43;95638.44;;;8.28;40.67
78149;BME280;67396;42.664;23.382;2023-02-18T09:14:08;95637.03;;;8.03;41.42
78149;BME280;67396;42.664;23.382;2023-02-18T09:16:34;95637.22;;;8.10;41.46
78149;BME280;67396;42.664;23.382;2023-02-18T09:19:00;95645.88;;;8.12;41.24
78149;BME280;67396;42.664;23.382;2023-02-18T09:21:26;95650.25;;;8.44;52.53
78149;BME280;67396;42.664;23.382;2023-02-18T09:23:52;95642.84;;;8.80;47.75
78149;BME280;67396;42.664;23.382;2023-02-18T09:26:20;95636.25;;;9.00;41.09
78149;BME280;67396;42.664;23.382;2023-02-18T09:28:48;95637.41;;;8.99;40.05
78149;BME280;67396;42.664;23.382;2023-02-18T09:31:17;95625.44;;;8.88;40.31
78149;BME280;67396;42.664;23.382;2023-02-18T09:33:47;95624.88;;;8.98;40.15
78149;BME280;67396;42.664;23.382;2023-02-18T09:36:17;95615.34;;;8.92;40.19
78149;BME280;67396;42.664;23.382;2023-02-18T09:38:43;95611.66;;;8.84;40.21
78149;BME280;67396;42.664;23.382;2023-02-18T09:41:41;95603.69;;;8.95;40.12
78149;BME280;67396;42.664;23.382;2023-02-18T09:44:13;95608.97;;;9.03;39.50
78149;BME280;67396;42.664;23.382;2023-02-18T09:49:28;95613.09;;;9.13;38.79
78149;BME280;67396;42.664;23.382;2023-02-18T09:52:04;95605.22;;;9.31;38.95
78149;BME280;67396;42.664;23.382;2023-02-18T09:54:39;95614.38;;;9.38;38.25
78149;BME280;67396;42.664;23.382;2023-02-18T10:00:02;95612.13;;;9.44;38.25
78149;BME280;67396;42.664;23.382;2023-02-18T10:02:30;95605.59;;;9.49;38.66
78149;BME280;67396;42.664;23.382;2023-02-18T10:05:01;95600.91;;;9.49;38.57
78149;BME280;67396;42.664;23.382;2023-02-18T10:07:31;95600.25;;;9.56;38.75
78149;BME280;67396;42.664;23.382;2023-02-18T10:10:02;95592.63;;;9.68;37.99
78149;BME280;67396;42.664;23.382;2023-02-18T10:12:36;95588.81;;;9.73;38.08
78149;BME280;67396;42.664;23.382;2023-02-18T10:15:06;95583.38;;;9.76;38.27
78149;BME280;67396;42.664;23.382;2023-02-18T10:17:32;95586.41;;;9.91;37.93
78149;BME280;67396;42.664;23.382;2023-02-18T10:19:58;95585.28;;;9.95;37.74
78149;BME280;67396;42.664;23.382;2023-02-18T10:22:25;95584.00;;;9.89;37.88
78149;BME280;67396;42.664;23.382;2023-02-18T10:24:53;95583.28;;;9.92;37.58
78149;BME280;67396;42.664;23.382;2023-02-18T10:27:24;95588.91;;;9.99;37.38
78149;BME280;67396;42.664;23.382;2023-02-18T10:29:50;95580.91;;;10.13;37.02
78149;BME280;67396;42.664;23.382;2023-02-18T10:32:23;95570.94;;;10.25;36.62
78149;BME280;67396;42.664;23.382;2023-02-18T10:35:02;95571.84;;;10.32;36.47
78149;BME280;67396;42.664;23.382;2023-02-18T10:40:28;95565.00;;;10.45;36.67
78149;BME280;67396;42.664;23.382;2023-02-18T10:43:29;95550.75;;;10.63;35.97
78149;BME280;67396;42.664;23.382;2023-02-18T10:51:25;95529.81;;;10.81;35.31
78149;BME280;67396;42.664;23.382;2023-02-18T10:54:02;95524.88;;;10.93;36.20
78149;BME280;67396;42.664;23.382;2023-02-18T10:56:48;95529.69;;;11.04;35.81
78149;BME280;67396;42.664;23.382;2023-02-18T10:59:19;95530.34;;;11.23;35.47
78149;BME280;67396;42.664;23.382;2023-02-18T11:01:44;95529.75;;;11.41;34.81
78149;BME280;67396;42.664;23.382;2023-02-18T11:04:19;95521.94;;;11.46;34.53
78149;BME280;67396;42.664;23.382;2023-02-18T11:06:47;95514.84;;;11.42;34.06
78149;BME280;67396;42.664;23.382;2023-02-18T11:09:38;95504.72;;;11.49;34.06
78149;BME280;67396;42.664;23.382;2023-02-18T11:12:26;95510.31;;;11.60;33.52
78149;BME280;67396;42.664;23.382;2023-02-18T11:17:49;95497.25;;;11.90;32.54
78149;BME280;67396;42.664;23.382;2023-02-18T11:22:50;95477.72;;;12.02;31.66
78149;BME280;67396;42.664;23.382;2023-02-18T11:25:26;95481.72;;;12.12;31.77
78149;BME280;67396;42.664;23.382;2023-02-18T11:27:57;95479.44;;;12.25;31.84
78149;BME280;67396;42.664;23.382;2023-02-18T11:30:31;95464.56;;;12.29;31.80
78149;BME280;67396;42.664;23.382;2023-02-18T11:33:03;95465.34;;;12.33;31.11
78149;BME280;67396;42.664;23.382;2023-02-18T11:35:31;95453.19;;;12.41;30.99
78149;BME280;67396;42.664;23.382;2023-02-18T11:37:58;95457.19;;;12.48;30.75
78149;BME280;67396;42.664;23.382;2023-02-18T11:40:30;95448.94;;;12.51;30.68
78149;BME280;67396;42.664;23.382;2023-02-18T11:43:06;95441.13;;;12.57;29.40
78149;BME280;67396;42.664;23.382;2023-02-18T11:45:36;95451.72;;;12.55;29.82
78149;BME280;67396;42.664;23.382;2023-02-18T11:48:13;95451.69;;;12.48;29.77
78149;BME280;67396;42.664;23.382;2023-02-18T11:50:40;95435.16;;;12.48;29.81
78149;BME280;67396;42.664;23.382;2023-02-18T11:53:53;95432.41;;;12.48;29.68
78149;BME280;67396;42.664;23.382;2023-02-18T11:56:18;95443.81;;;12.50;30.09
78149;BME280;67396;42.664;23.382;2023-02-18T11:58:46;95431.63;;;12.51;30.16
78149;BME280;67396;42.664;23.382;2023-02-18T12:01:21;95412.75;;;12.53;30.27
78149;BME280;67396;42.664;23.382;2023-02-18T12:03:58;95409.25;;;12.56;30.25
78149;BME280;67396;42.664;23.382;2023-02-18T12:06:40;95410.84;;;12.64;30.38
78149;BME280;67396;42.664;23.382;2023-02-18T12:09:21;95397.50;;;12.69;31.05
78149;BME280;67396;42.664;23.382;2023-02-18T12:11:51;95389.25;;;12.73;30.72
78149;BME280;67396;42.664;23.382;2023-02-18T12:14:20;95394.75;;;12.73;30.84
78149;BME280;67396;42.664;23.382;2023-02-18T12:22:35;95386.97;;;12.96;30.61
78149;BME280;67396;42.664;23.382;2023-02-18T12:33:11;95366.19;;;13.31;30.36
78149;BME280;67396;42.664;23.382;2023-02-18T12:41:35;95361.84;;;13.26;30.83
78149;BME280;67396;42.664;23.382;2023-02-18T12:44:17;95346.09;;;13.27;31.00
78149;BME280;67396;42.664;23.382;2023-02-18T13:03:48;95350.84;;;13.58;30.93
78149;BME280;67396;42.664;23.382;2023-02-18T13:11:24;95351.59;;;13.90;29.87
78149;BME280;67396;42.664;23.382;2023-02-18T13:14:15;95346.06;;;13.94;29.08
78149;BME280;67396;42.664;23.382;2023-02-18T13:16:45;95343.72;;;13.96;29.37
78149;BME280;67396;42.664;23.382;2023-02-18T13:19:35;95339.75;;;14.01;28.75
78149;BME280;67396;42.664;23.382;2023-02-18T13:22:26;95340.53;;;14.05;29.11
78149;BME280;67396;42.664;23.382;2023-02-18T13:24:54;95332.63;;;14.10;28.86
78149;BME280;67396;42.664;23.382;2023-02-18T13:34:16;95339.31;;;14.20;29.18
78149;BME280;67396;42.664;23.382;2023-02-18T13:37:19;95340.09;;;14.24;29.07
78149;BME280;67396;42.664;23.382;2023-02-18T13:47:43;95354.34;;;13.98;31.08
78149;BME280;67396;42.664;23.382;2023-02-18T13:53:23;95343.31;;;13.83;31.34
78149;BME280;67396;42.664;23.382;2023-02-18T13:55:51;95334.66;;;13.78;31.55
78149;BME280;67396;42.664;23.382;2023-02-18T13:58:23;95333.91;;;13.70;31.68
78149;BME280;67396;42.664;23.382;2023-02-18T14:01:00;95330.31;;;13.73;31.46
78149;BME280;67396;42.664;23.382;2023-02-18T14:05:55;95338.22;;;13.61;31.65
78149;BME280;67396;42.664;23.382;2023-02-18T14:08:31;95329.56;;;13.51;32.15
78149;BME280;67396;42.664;23.382;2023-02-18T14:14:30;95338.22;;;13.43;32.13
78149;BME280;67396;42.664;23.382;2023-02-18T14:22:45;95348.84;;;13.23;32.32
78149;BME280;67396;42.664;23.382;2023-02-18T14:28:03;95335.00;;;13.12;32.08
78149;BME280;67396;42.664;23.382;2023-02-18T14:30:37;95332.66;;;13.07;32.39
78149;BME280;67396;42.664;23.382;2023-02-18T14:33:04;95338.97;;;13.08;32.60
78149;BME280;67396;42.664;23.382;2023-02-18T14:35:45;95333.44;;;13.04;32.39
78149;BME280;67396;42.664;23.382;2023-02-18T14:38:34;95345.25;;;13.01;32.75
78149;BME280;67396;42.664;23.382;2023-02-18T14:46:49;95338.53;;;13.02;32.52
78149;BME280;67396;42.664;23.382;2023-02-18T14:51:45;95336.56;;;12.92;32.93
78149;BME280;67396;42.664;23.382;2023-02-18T14:54:16;95331.84;;;12.89;33.37
78149;BME280;67396;42.664;23.382;2023-02-18T14:57:05;95324.72;;;12.85;33.08
78149;BME280;67396;42.664;23.382;2023-02-18T14:59:39;95321.19;;;12.84;33.59
78149;BME280;67396;42.664;23.382;2023-02-18T15:02:22;95323.56;;;12.89;33.45
78149;BME280;67396;42.664;23.382;2023-02-18T15:04:48;95327.91;;;12.90;33.61
78149;BME280;67396;42.664;23.382;2023-02-18T15:07:18;95314.91;;;12.87;33.68
78149;BME280;67396;42.664;23.382;2023-02-18T15:09:45;95323.19;;;12.84;33.48
78149;BME280;67396;42.664;23.382;2023-02-18T15:12:14;95324.72;;;12.85;33.85
78149;BME280;67396;42.664;23.382;2023-02-18T15:14:42;95310.56;;;12.79;33.47
78149;BME280;67396;42.664;23.382;2023-02-18T15:17:18;95324.31;;;12.79;33.85
78149;BME280;67396;42.664;23.382;2023-02-18T15:19:57;95323.91;;;12.70;34.05
78149;BME280;67396;42.664;23.382;2023-02-18T15:22:25;95316.03;;;12.65;33.99
78149;BME280;67396;42.664;23.382;2023-02-18T15:24:53;95317.97;;;12.54;34.76
78149;BME280;67396;42.664;23.382;2023-02-18T15:27:24;95316.38;;;12.53;34.47
78149;BME280;67396;42.664;23.382;2023-02-18T15:32:44;95311.25;;;12.48;34.64
78149;BME280;67396;42.664;23.382;2023-02-18T15:35:15;95299.47;;;12.54;34.48
78149;BME280;67396;42.664;23.382;2023-02-18T15:37:45;95304.56;;;12.45;34.52
78149;BME280;67396;42.664;23.382;2023-02-18T15:40:14;95293.94;;;12.40;34.49
78149;BME280;67396;42.664;23.382;2023-02-18T15:42:40;95297.44;;;12.40;34.77
78149;BME280;67396;42.664;23.382;2023-02-18T15:47:41;95307.28;;;12.31;34.95
78149;BME280;67396;42.664;23.382;2023-02-18T15:50:19;95306.44;;;12.23;34.92
78149;BME280;67396;42.664;23.382;2023-02-18T15:52:47;95294.63;;;12.19;35.31